createdAt,value
2019-03-06T00:00:55.102Z,97855.98
2019-03-06T00:03:03.041Z,97857.45
2019-03-06T00:05:11.093Z,97859.73
2019-03-06T00:07:20.745Z,97863.22
2019-03-06T00:09:28.247Z,97874.98
2019-03-06T00:11:35.783Z,97872.91
2019-03-06T00:13:43.351Z,97870.12
2019-03-06T00:15:50.989Z,97869.58
2019-03-06T00:17:58.665Z,97874.60
2019-03-06T00:20:09.028Z,97867.20
2019-03-06T00:22:16.899Z,97880.66
2019-03-06T00:24:24.574Z,97867.13
2019-03-06T00:26:32.144Z,97878.10
2019-03-06T00:28:41.359Z,97871.97
2019-03-06T00:30:49.070Z,97878.98
2019-03-06T00:32:56.982Z,97878.20
2019-03-06T00:35:06.940Z,97877.41
2019-03-06T00:37:14.515Z,97881.59
2019-03-06T00:39:23.898Z,97889.56
2019-03-06T00:41:33.150Z,97884.69
2019-03-06T00:43:40.765Z,97895.16
2019-03-06T00:45:48.408Z,97877.94
2019-03-06T00:47:56.033Z,97885.61
2019-03-06T00:50:04.673Z,97879.39
2019-03-06T00:52:12.350Z,97888.36
2019-03-06T00:54:20.038Z,97889.03
2019-03-06T00:56:27.632Z,97889.53
2019-03-06T00:58:35.276Z,97897.13
2019-03-06T01:00:43.110Z,97898.47
2019-03-06T01:02:52.095Z,97903.92
2019-03-06T01:05:00.676Z,97903.41
2019-03-06T01:07:08.230Z,97903.88
2019-03-06T01:09:17.058Z,97904.03
2019-03-06T01:11:24.730Z,97912.02
2019-03-06T01:13:32.357Z,97907.25
2019-03-06T01:15:41.245Z,97903.95
2019-03-06T01:17:48.786Z,97914.84
2019-03-06T01:19:56.425Z,97914.83
2019-03-06T01:22:04.091Z,97914.35
2019-03-06T01:24:11.875Z,97913.27
2019-03-06T01:26:19.495Z,97905.51
2019-03-06T01:28:27.093Z,97926.89
2019-03-06T01:30:34.689Z,97918.97
2019-03-06T01:32:42.656Z,97922.17
2019-03-06T01:35:07.910Z,97924.34
2019-03-06T01:37:18.224Z,97925.92
2019-03-06T01:39:30.467Z,97929.16
2019-03-06T01:41:56.341Z,97929.03
2019-03-06T01:44:05.574Z,97942.27
2019-03-06T01:46:13.264Z,97941.00
2019-03-06T01:48:20.865Z,97942.90
2019-03-06T01:50:28.470Z,97949.94
2019-03-06T01:52:36.264Z,97946.67
2019-03-06T01:54:43.860Z,97951.78
2019-03-06T01:56:51.452Z,97944.64
2019-03-06T01:58:59.076Z,97941.31
2019-03-06T02:01:06.673Z,97941.48
2019-03-06T02:03:14.508Z,97950.16
2019-03-06T02:05:22.282Z,97951.84
2019-03-06T02:07:29.896Z,97950.16
2019-03-06T02:09:39.083Z,97955.62
2019-03-06T02:11:46.553Z,97965.67
2019-03-06T02:13:54.151Z,97967.37
2019-03-06T02:16:01.886Z,97965.78
2019-03-06T02:18:09.509Z,97972.20
2019-03-06T02:20:19.180Z,97976.89
2019-03-06T02:22:26.751Z,97960.22
2019-03-06T02:24:34.274Z,97974.77
2019-03-06T02:26:42.078Z,97976.92
2019-03-06T02:28:49.673Z,97983.09
2019-03-06T02:30:57.303Z,97981.29
2019-03-06T02:33:05.139Z,97988.80
2019-03-06T02:35:12.961Z,97985.53
2019-03-06T02:37:20.748Z,98001.80
2019-03-06T02:39:28.486Z,98004.20
2019-03-06T02:41:36.169Z,98009.95
2019-03-06T02:43:43.863Z,98002.33
2019-03-06T02:45:51.571Z,98012.81
2019-03-06T02:47:59.163Z,98011.97
2019-03-06T02:50:10.975Z,98020.86
2019-03-06T02:52:18.748Z,98023.70
2019-03-06T02:54:26.312Z,98031.59
2019-03-06T02:56:33.937Z,98027.29
2019-03-06T02:58:44.295Z,98034.55
2019-03-06T03:00:56.444Z,98039.36
2019-03-06T03:03:19.181Z,98043.05
2019-03-06T03:05:28.690Z,98047.34
2019-03-06T03:07:36.356Z,98051.66
2019-03-06T03:09:45.011Z,98059.95
2019-03-06T03:11:54.349Z,98062.27
2019-03-06T03:14:01.948Z,98053.02
2019-03-06T03:16:09.641Z,98072.00
2019-03-06T03:18:17.651Z,98054.14
2019-03-06T03:20:26.734Z,98070.83
2019-03-06T03:22:34.489Z,98070.75
2019-03-06T03:24:42.243Z,98072.45
2019-03-06T03:26:49.971Z,98057.41
2019-03-06T03:28:57.512Z,98073.81
2019-03-06T03:31:05.122Z,98064.67
2019-03-06T03:33:12.723Z,98065.09
2019-03-06T03:35:20.532Z,98081.86
2019-03-06T03:37:28.134Z,98081.47
2019-03-06T03:39:35.730Z,98085.19
2019-03-06T03:41:43.363Z,98079.63
2019-03-06T03:43:51.095Z,98085.70
2019-03-06T03:45:58.701Z,98092.59
2019-03-06T03:48:08.518Z,98095.15
2019-03-06T03:50:16.089Z,98090.31
2019-03-06T03:52:23.781Z,98090.73
2019-03-06T03:54:31.409Z,98105.91
2019-03-06T03:56:39.108Z,98105.70
2019-03-06T03:58:46.776Z,98108.91
2019-03-06T04:00:54.467Z,98106.31
2019-03-06T04:03:02.466Z,98112.94
2019-03-06T04:05:11.774Z,98115.92
2019-03-06T04:07:19.297Z,98119.55
2019-03-06T04:09:26.797Z,98122.55
2019-03-06T04:11:35.601Z,98124.75
2019-03-06T04:13:43.128Z,98129.05
2019-03-06T04:15:51.689Z,98130.97
2019-03-06T04:17:59.553Z,98140.69
2019-03-06T04:20:12.113Z,98137.41
2019-03-06T04:22:19.706Z,98132.61
2019-03-06T04:24:27.781Z,98135.98
2019-03-06T04:26:35.369Z,98133.41
2019-03-06T04:28:42.937Z,98149.95
2019-03-06T04:30:52.561Z,98150.14
2019-03-06T04:33:00.368Z,98148.22
2019-03-06T04:35:08.460Z,98151.81
2019-03-06T04:37:16.029Z,98150.28
2019-03-06T04:39:23.623Z,98160.42
2019-03-06T04:41:31.187Z,98155.46
2019-03-06T04:43:38.792Z,98164.97
2019-03-06T04:45:47.481Z,98165.33
2019-03-06T04:47:55.198Z,98168.77
2019-03-06T04:50:02.898Z,98172.86
2019-03-06T04:52:10.397Z,98178.16
2019-03-06T04:54:17.975Z,98186.55
2019-03-06T04:56:25.805Z,98182.13
2019-03-06T04:58:33.415Z,98194.97
2019-03-06T05:00:41.115Z,98197.59
2019-03-06T05:02:48.591Z,98197.17
2019-03-06T05:04:56.260Z,98195.86
2019-03-06T05:07:04.007Z,98208.02
2019-03-06T05:09:11.572Z,98211.45
2019-03-06T05:11:19.174Z,98204.57
2019-03-06T05:13:27.493Z,98214.34
2019-03-06T05:15:35.077Z,98215.25
2019-03-06T05:17:45.455Z,98215.48
2019-03-06T05:19:53.189Z,98220.11
2019-03-06T05:22:00.820Z,98225.07
2019-03-06T05:24:08.320Z,98224.55
2019-03-06T05:26:16.247Z,98225.41
2019-03-06T05:28:25.184Z,98237.23
2019-03-06T05:30:32.777Z,98231.05
2019-03-06T05:32:40.449Z,98241.97
2019-03-06T05:34:47.921Z,98230.70
2019-03-06T05:37:05.798Z,98241.69
2019-03-06T05:39:13.440Z,98250.96
2019-03-06T05:41:21.243Z,98265.19
2019-03-06T05:43:28.947Z,98259.47
2019-03-06T05:45:37.595Z,98273.38
2019-03-06T05:47:46.704Z,98274.27
2019-03-06T05:49:54.484Z,98275.02
2019-03-06T05:52:02.049Z,98282.81
2019-03-06T05:54:09.620Z,98270.67
2019-03-06T05:56:17.394Z,98287.11
2019-03-06T05:58:24.936Z,98287.45
2019-03-06T06:00:32.503Z,98287.56
2019-03-06T06:02:40.102Z,98293.19
2019-03-06T06:04:47.672Z,98297.96
2019-03-06T06:06:56.537Z,98290.66
2019-03-06T06:09:06.995Z,98294.23
2019-03-06T06:11:14.727Z,98309.64
2019-03-06T06:13:22.204Z,98309.64
2019-03-06T06:15:30.656Z,98311.80
2019-03-06T06:17:38.437Z,98309.59
2019-03-06T06:19:45.973Z,98315.66
2019-03-06T06:22:07.140Z,98305.94
2019-03-06T06:24:14.711Z,98339.59
2019-03-06T06:26:22.447Z,98319.05
2019-03-06T06:28:29.966Z,98323.51
2019-03-06T06:30:37.940Z,98327.00
2019-03-06T06:32:47.265Z,98327.55
2019-03-06T06:34:55.911Z,98331.47
2019-03-06T06:37:03.608Z,98335.76
2019-03-06T06:39:11.175Z,98332.98
2019-03-06T06:41:18.768Z,98334.00
2019-03-06T06:43:26.406Z,98342.88
2019-03-06T06:45:34.078Z,98347.30
2019-03-06T06:48:13.562Z,98354.87
2019-03-06T06:50:21.235Z,98355.27
2019-03-06T06:52:54.480Z,98366.09
2019-03-06T06:55:25.220Z,98373.36
2019-03-06T06:58:13.760Z,98377.03
2019-03-06T07:01:02.457Z,98374.28
2019-03-06T07:03:18.839Z,98385.99
2019-03-06T07:05:34.346Z,98383.80
2019-03-06T07:07:43.968Z,98401.05
2019-03-06T07:09:54.045Z,98395.12
2019-03-06T07:12:09.004Z,98403.67
2019-03-06T07:14:34.548Z,98401.58
2019-03-06T07:16:59.267Z,98398.34
2019-03-06T07:19:17.675Z,98400.75
2019-03-06T07:21:35.626Z,98406.31
2019-03-06T07:23:47.819Z,98405.38
2019-03-06T07:25:58.057Z,98411.58
2019-03-06T07:28:19.493Z,98415.25
2019-03-06T07:30:41.119Z,98424.86
2019-03-06T07:33:08.602Z,98425.07
2019-03-06T07:35:58.421Z,98421.61
2019-03-06T07:38:07.704Z,98422.83
2019-03-06T07:40:16.624Z,98435.73
2019-03-06T07:42:25.830Z,98424.69
2019-03-06T07:44:42.256Z,98431.09
2019-03-06T07:46:57.226Z,98432.06
2019-03-06T07:49:16.505Z,98439.48
2019-03-06T07:51:37.702Z,98427.30
2019-03-06T07:53:55.929Z,98429.70
2019-03-06T07:56:05.167Z,98447.44
2019-03-06T07:58:51.161Z,98454.27
2019-03-06T08:00:58.733Z,98451.07
2019-03-06T08:03:07.767Z,98447.73
2019-03-06T08:05:15.406Z,98450.97
2019-03-06T08:07:23.113Z,98462.02
2019-03-06T08:09:30.968Z,98454.97
2019-03-06T08:11:43.266Z,98457.98
2019-03-06T08:13:52.476Z,98460.94
2019-03-06T08:16:01.889Z,98453.20
2019-03-06T08:18:12.189Z,98457.00
2019-03-06T08:20:37.787Z,98462.20
2019-03-06T08:22:48.237Z,98461.93
2019-03-06T08:25:15.755Z,98458.67
2019-03-06T08:27:25.044Z,98461.55
2019-03-06T08:29:32.715Z,98470.03
2019-03-06T08:31:41.923Z,98462.77
2019-03-06T08:33:49.573Z,98460.94
2019-03-06T08:35:57.145Z,98466.58
2019-03-06T08:38:04.857Z,98467.61
2019-03-06T08:40:13.302Z,98466.75
2019-03-06T08:42:20.905Z,98473.62
2019-03-06T08:44:28.627Z,98473.98
2019-03-06T08:46:53.482Z,98478.78
2019-03-06T08:49:16.139Z,98487.08
2019-03-06T08:51:26.452Z,98484.74
2019-03-06T08:53:51.838Z,98483.94
2019-03-06T08:56:02.217Z,98482.88
2019-03-06T08:58:27.631Z,98472.24
2019-03-06T09:00:37.135Z,98480.70
2019-03-06T09:02:49.415Z,98476.37
2019-03-06T09:05:01.432Z,98474.34
2019-03-06T09:07:27.243Z,98464.09
2019-03-06T09:09:36.621Z,98479.91
2019-03-06T09:11:57.910Z,98472.41
2019-03-06T09:14:09.703Z,98481.72
2019-03-06T09:16:18.838Z,98487.60
2019-03-06T09:18:29.075Z,98476.56
2019-03-06T09:20:41.207Z,98490.27
2019-03-06T09:22:54.694Z,98476.23
2019-03-06T09:25:19.051Z,98481.88
2019-03-06T09:27:33.894Z,98483.87
2019-03-06T09:29:55.745Z,98496.89
2019-03-06T09:32:07.593Z,98481.98
2019-03-06T09:34:25.895Z,98478.61
2019-03-06T09:36:51.293Z,98464.95
2019-03-06T09:39:12.796Z,98473.95
2019-03-06T09:41:28.089Z,98477.09
2019-03-06T09:43:37.405Z,98474.30
2019-03-06T09:45:47.651Z,98471.41
2019-03-06T09:47:59.492Z,98486.63
2019-03-06T09:50:18.316Z,98471.29
2019-03-06T09:52:30.616Z,98468.95
2019-03-06T09:54:41.054Z,98478.53
2019-03-06T09:57:06.382Z,98489.36
2019-03-06T09:59:17.534Z,98482.50
2019-03-06T10:01:29.580Z,98490.60
2019-03-06T10:03:38.808Z,98493.81
2019-03-06T10:05:52.419Z,98501.17
2019-03-06T10:08:13.935Z,98501.61
2019-03-06T10:10:26.640Z,98509.05
2019-03-06T10:12:50.996Z,98493.02
2019-03-06T10:15:01.336Z,98505.47
2019-03-06T10:17:14.065Z,98514.98
2019-03-06T10:19:24.151Z,98516.66
2019-03-06T10:21:31.886Z,98502.08
2019-03-06T10:23:39.621Z,98521.41
2019-03-06T10:25:47.358Z,98531.87
2019-03-06T10:27:55.004Z,98529.55
2019-03-06T10:30:02.658Z,98530.95
2019-03-06T10:32:10.414Z,98525.49
2019-03-06T10:34:17.953Z,98526.06
2019-03-06T10:36:25.962Z,98530.18
2019-03-06T10:38:33.692Z,98529.46
2019-03-06T10:40:41.158Z,98529.78
2019-03-06T10:42:48.973Z,98523.08
2019-03-06T10:44:56.538Z,98537.52
2019-03-06T10:47:05.412Z,98539.08
2019-03-06T10:49:13.487Z,98542.67
2019-03-06T10:51:21.039Z,98547.06
2019-03-06T10:53:28.603Z,98532.05
2019-03-06T10:55:36.395Z,98523.58
2019-03-06T10:57:43.954Z,98531.15
2019-03-06T10:59:51.579Z,98527.84
2019-03-06T11:01:59.142Z,98531.48
2019-03-06T11:04:07.338Z,98514.92
2019-03-06T11:06:15.295Z,98526.01
2019-03-06T11:08:25.031Z,98523.02
2019-03-06T11:10:34.468Z,98531.62
2019-03-06T11:12:42.513Z,98524.59
2019-03-06T11:14:50.076Z,98529.73
2019-03-06T11:16:57.611Z,98535.30
2019-03-06T11:19:06.589Z,98527.09
2019-03-06T11:21:14.760Z,98527.80
2019-03-06T11:23:22.629Z,98525.50
2019-03-06T11:25:31.798Z,98528.19
2019-03-06T11:27:39.503Z,98518.48
2019-03-06T11:29:47.889Z,98511.06
2019-03-06T11:31:55.580Z,98509.30
2019-03-06T11:34:03.237Z,98501.65
2019-03-06T11:36:11.674Z,98500.11
2019-03-06T11:38:19.748Z,98509.23
2019-03-06T11:40:27.688Z,98514.39
2019-03-06T11:42:35.319Z,98518.95
2019-03-06T11:44:42.964Z,98517.56
2019-03-06T11:46:50.606Z,98516.04
2019-03-06T11:48:58.174Z,98517.97
2019-03-06T11:51:06.375Z,98513.64
2019-03-06T11:53:14.115Z,98510.75
2019-03-06T11:55:22.093Z,98509.52
2019-03-06T11:57:29.907Z,98514.28
2019-03-06T11:59:37.756Z,98515.84
2019-03-06T12:01:48.181Z,98512.50
2019-03-06T12:03:55.555Z,98515.12
2019-03-06T12:06:03.215Z,98516.73
2019-03-06T12:08:16.815Z,98520.78
2019-03-06T12:10:25.024Z,98513.56
2019-03-06T12:12:32.585Z,98516.98
2019-03-06T12:14:40.694Z,98511.78
2019-03-06T12:16:51.329Z,98512.44
2019-03-06T12:18:58.815Z,98508.86
2019-03-06T12:21:06.612Z,98519.80
2019-03-06T12:23:15.317Z,98515.00
2019-03-06T12:25:22.987Z,98514.08
2019-03-06T12:27:30.632Z,98506.69
2019-03-06T12:29:38.273Z,98505.95
2019-03-06T12:31:46.056Z,98507.92
2019-03-06T12:33:53.800Z,98501.93
2019-03-06T12:36:01.671Z,98497.98
2019-03-06T12:38:10.841Z,98503.38
2019-03-06T12:40:24.588Z,98508.07
2019-03-06T12:42:32.338Z,98503.75
2019-03-06T12:44:39.915Z,98493.84
2019-03-06T12:46:47.834Z,98490.55
2019-03-06T12:48:58.599Z,98491.17
2019-03-06T12:51:06.516Z,98488.89
2019-03-06T12:53:14.098Z,98483.42
2019-03-06T12:55:21.815Z,98479.34
2019-03-06T12:57:29.565Z,98468.73
2019-03-06T12:59:37.140Z,98475.33
2019-03-06T13:01:44.893Z,98477.97
2019-03-06T13:03:52.572Z,98482.64
2019-03-06T13:06:00.395Z,98477.75
2019-03-06T13:08:08.158Z,98480.15
2019-03-06T13:10:19.414Z,98473.70
2019-03-06T13:12:29.138Z,98470.02
2019-03-06T13:14:36.186Z,98470.81
2019-03-06T13:16:43.788Z,98473.30
2019-03-06T13:18:51.381Z,98466.46
2019-03-06T13:21:00.777Z,98463.69
2019-03-06T13:23:09.165Z,98465.39
2019-03-06T13:25:20.927Z,98459.30
2019-03-06T13:27:28.579Z,98452.21
2019-03-06T13:29:36.248Z,98456.05
2019-03-06T13:31:43.949Z,98460.66
2019-03-06T13:33:55.872Z,98462.41
2019-03-06T13:36:05.483Z,98459.03
2019-03-06T13:38:13.045Z,98457.00
2019-03-06T13:40:20.999Z,98458.34
2019-03-06T13:42:28.613Z,98445.02
2019-03-06T13:44:36.301Z,98446.35
2019-03-06T13:46:43.921Z,98449.58
2019-03-06T13:48:51.721Z,98449.35
2019-03-06T13:50:59.395Z,98457.41
2019-03-06T13:53:07.290Z,98459.85
2019-03-06T13:55:17.414Z,98451.72
2019-03-06T13:57:25.197Z,98447.89
2019-03-06T13:59:32.789Z,98445.25
2019-03-06T14:01:40.299Z,98449.92
2019-03-06T14:03:48.082Z,98452.38
2019-03-06T14:05:56.602Z,98450.88
2019-03-06T14:08:04.490Z,98454.47
2019-03-06T14:10:19.169Z,98456.50
2019-03-06T14:12:26.812Z,98466.59
2019-03-06T14:14:34.340Z,98457.21
2019-03-06T14:16:42.143Z,98465.03
2019-03-06T14:18:49.727Z,98462.97
2019-03-06T14:20:58.979Z,98453.11
2019-03-06T14:23:07.753Z,98453.05
2019-03-06T14:25:17.061Z,98449.89
2019-03-06T14:27:25.070Z,98451.70
2019-03-06T14:29:32.819Z,98454.26
2019-03-06T14:31:40.293Z,98446.98
2019-03-06T14:33:47.977Z,98441.38
2019-03-06T14:35:55.690Z,98433.56
2019-03-06T14:38:03.412Z,98440.05
2019-03-06T14:40:35.018Z,98435.70
2019-03-06T14:42:42.702Z,98438.64
2019-03-06T14:44:50.487Z,98441.18
2019-03-06T14:46:58.613Z,98442.64
2019-03-06T14:49:06.230Z,98437.50
2019-03-06T14:51:14.052Z,98429.44
2019-03-06T14:53:22.795Z,98433.45
2019-03-06T14:55:30.441Z,98436.45
2019-03-06T14:57:38.015Z,98436.88
2019-03-06T14:59:45.691Z,98434.31
2019-03-06T15:01:53.345Z,98441.09
2019-03-06T15:04:00.959Z,98436.06
2019-03-06T15:06:08.707Z,98428.91
2019-03-06T15:08:16.289Z,98436.35
2019-03-06T15:10:24.000Z,98427.25
2019-03-06T15:12:32.647Z,98426.22
2019-03-06T15:14:40.343Z,98423.52
2019-03-06T15:16:48.194Z,98427.67
2019-03-06T15:18:55.952Z,98428.55
2019-03-06T15:21:03.757Z,98429.74
2019-03-06T15:23:11.463Z,98426.91
2019-03-06T15:25:26.241Z,98419.17
2019-03-06T15:27:33.719Z,98416.25
2019-03-06T15:29:41.303Z,98419.92
2019-03-06T15:31:49.071Z,98419.32
2019-03-06T15:33:56.728Z,98411.94
2019-03-06T15:36:04.295Z,98413.82
2019-03-06T15:38:12.154Z,98414.08
2019-03-06T15:40:29.139Z,98412.88
2019-03-06T15:42:36.777Z,98410.84
2019-03-06T15:44:44.443Z,98405.49
2019-03-06T15:46:52.095Z,98402.95
2019-03-06T15:48:59.577Z,98399.95
2019-03-06T15:51:07.227Z,98402.19
2019-03-06T15:53:24.152Z,98401.42
2019-03-06T15:55:27.917Z,98397.44
2019-03-06T15:57:35.752Z,98399.23
2019-03-06T15:59:43.601Z,98395.46
2019-03-06T16:01:51.410Z,98396.70
2019-03-06T16:03:59.006Z,98399.80
2019-03-06T16:06:06.946Z,98391.61
2019-03-06T16:08:15.336Z,98393.12
2019-03-06T16:10:23.384Z,98392.64
2019-03-06T16:12:30.864Z,98385.10
2019-03-06T16:14:38.580Z,98385.69
2019-03-06T16:16:46.317Z,98384.38
2019-03-06T16:18:53.909Z,98382.12
2019-03-06T16:21:01.590Z,98377.23
2019-03-06T16:23:09.343Z,98379.39
2019-03-06T16:25:17.605Z,98383.50
2019-03-06T16:27:25.524Z,98387.90
2019-03-06T16:29:33.217Z,98380.83
2019-03-06T16:31:40.784Z,98375.34
2019-03-06T16:33:48.473Z,98380.97
2019-03-06T16:35:56.329Z,98377.77
2019-03-06T16:38:04.079Z,98373.72
2019-03-06T16:40:21.570Z,98376.52
2019-03-06T16:42:29.433Z,98373.91
2019-03-06T16:44:38.537Z,98368.77
2019-03-06T16:46:46.119Z,98365.53
2019-03-06T16:48:53.876Z,98372.73
2019-03-06T16:51:01.703Z,98363.40
2019-03-06T16:53:09.638Z,98367.15
2019-03-06T16:55:21.855Z,98373.44
2019-03-06T16:57:29.451Z,98371.16
2019-03-06T16:59:37.284Z,98364.59
2019-03-06T17:01:44.988Z,98375.39
2019-03-06T17:03:52.635Z,98363.80
2019-03-06T17:06:00.213Z,98356.80
2019-03-06T17:08:09.162Z,98354.55
2019-03-06T17:10:18.337Z,98353.63
2019-03-06T17:12:25.826Z,98354.37
2019-03-06T17:14:33.503Z,98352.23
2019-03-06T17:16:41.083Z,98346.50
2019-03-06T17:18:48.789Z,98345.91
2019-03-06T17:20:56.472Z,98338.97
2019-03-06T17:23:04.864Z,98337.48
2019-03-06T17:25:12.772Z,98337.26
2019-03-06T17:27:20.527Z,98333.23
2019-03-06T17:29:28.562Z,98336.32
2019-03-06T17:31:36.334Z,98333.06
2019-03-06T17:33:44.049Z,98339.16
2019-03-06T17:35:51.724Z,98332.47
2019-03-06T17:38:00.000Z,98325.09
2019-03-06T17:40:08.042Z,98318.23
2019-03-06T17:42:16.049Z,98318.66
2019-03-06T17:44:23.762Z,98314.51
2019-03-06T17:46:31.753Z,98320.91
2019-03-06T17:48:39.392Z,98323.43
2019-03-06T17:50:47.203Z,98323.00
2019-03-06T17:52:55.711Z,98320.39
2019-03-06T17:55:03.447Z,98321.58
2019-03-06T17:57:11.258Z,98312.56
2019-03-06T17:59:18.940Z,98304.79
2019-03-06T18:01:26.803Z,98304.19
2019-03-06T18:03:41.824Z,98313.80
2019-03-06T18:05:49.669Z,98306.05
2019-03-06T18:07:57.314Z,98306.33
2019-03-06T18:10:11.618Z,98311.49
2019-03-06T18:12:19.394Z,98311.23
2019-03-06T18:14:26.943Z,98305.48
2019-03-06T18:16:34.593Z,98300.95
2019-03-06T18:18:42.200Z,98295.09
2019-03-06T18:20:50.137Z,98295.63
2019-03-06T18:22:57.979Z,98296.61
2019-03-06T18:25:09.731Z,98305.49
2019-03-06T18:27:25.930Z,98304.28
2019-03-06T18:29:26.774Z,98296.63
2019-03-06T18:31:35.478Z,98298.41
2019-03-06T18:33:43.226Z,98301.80
2019-03-06T18:35:50.983Z,98290.88
2019-03-06T18:37:58.700Z,98285.81
2019-03-06T18:40:13.352Z,98284.22
2019-03-06T18:42:20.906Z,98291.86
2019-03-06T18:44:29.490Z,98285.13
2019-03-06T18:46:37.101Z,98284.38
2019-03-06T18:48:44.958Z,98282.74
2019-03-06T18:50:52.551Z,98287.02
2019-03-06T18:53:00.573Z,98287.55
2019-03-06T18:55:11.703Z,98286.33
2019-03-06T18:57:19.296Z,98285.11
2019-03-06T18:59:27.074Z,98290.22
2019-03-06T19:01:34.850Z,98287.33
2019-03-06T19:03:44.066Z,98281.36
2019-03-06T19:05:51.719Z,98281.31
2019-03-06T19:07:59.604Z,98272.04
2019-03-06T19:10:12.235Z,98272.02
2019-03-06T19:12:20.031Z,98269.49
2019-03-06T19:14:29.472Z,98266.60
2019-03-06T19:16:37.002Z,98262.06
2019-03-06T19:18:45.531Z,98262.11
2019-03-06T19:20:53.376Z,98250.77
2019-03-06T19:23:01.093Z,98258.41
2019-03-06T19:25:14.403Z,98248.36
2019-03-06T19:27:22.187Z,98258.10
2019-03-06T19:29:29.782Z,98258.15
2019-03-06T19:31:37.817Z,98252.34
2019-03-06T19:33:45.437Z,98244.39
2019-03-06T19:35:53.180Z,98243.54
2019-03-06T19:38:00.938Z,98239.38
2019-03-06T19:40:12.295Z,98234.42
2019-03-06T19:42:20.162Z,98236.06
2019-03-06T19:44:27.761Z,98230.24
2019-03-06T19:46:35.375Z,98232.77
2019-03-06T19:48:43.046Z,98227.35
2019-03-06T19:50:50.868Z,98217.75
2019-03-06T19:52:58.458Z,98216.45
2019-03-06T19:55:08.142Z,98213.17
2019-03-06T19:57:15.972Z,98220.38
2019-03-06T19:59:23.623Z,98209.85
2019-03-06T20:01:32.058Z,98212.44
2019-03-06T20:03:39.822Z,98203.20
2019-03-06T20:05:50.157Z,98204.05
2019-03-06T20:07:57.909Z,98205.36
2019-03-06T20:10:07.916Z,98199.61
2019-03-06T20:12:15.856Z,98195.44
2019-03-06T20:14:24.748Z,98191.23
2019-03-06T20:16:32.333Z,98194.17
2019-03-06T20:18:40.245Z,98198.40
2019-03-06T20:20:47.902Z,98201.34
2019-03-06T20:22:55.504Z,98190.77
2019-03-06T20:25:03.555Z,98193.34
2019-03-06T20:27:11.675Z,98189.16
2019-03-06T20:29:19.323Z,98192.91
2019-03-06T20:31:27.114Z,98192.02
2019-03-06T20:33:35.628Z,98195.34
2019-03-06T20:35:43.201Z,98196.56
2019-03-06T20:37:51.306Z,98196.18
2019-03-06T20:39:59.176Z,98202.25
2019-03-06T20:42:06.902Z,98202.94
2019-03-06T20:44:14.507Z,98197.42
2019-03-06T20:46:22.315Z,98198.38
2019-03-06T20:48:29.862Z,98189.72
2019-03-06T20:50:37.461Z,98181.55
2019-03-06T20:52:45.193Z,98186.44
2019-03-06T20:54:53.103Z,98181.23
2019-03-06T20:57:00.607Z,98179.37
2019-03-06T20:59:08.523Z,98182.22
2019-03-06T21:01:16.187Z,98192.23
2019-03-06T21:03:23.781Z,98183.38
2019-03-06T21:05:32.793Z,98182.89
2019-03-06T21:07:45.300Z,98174.89
2019-03-06T21:09:49.740Z,98173.98
2019-03-06T21:11:57.444Z,98173.98
2019-03-06T21:14:05.241Z,98165.48
2019-03-06T21:16:12.864Z,98162.94
2019-03-06T21:18:20.669Z,98163.32
2019-03-06T21:20:28.308Z,98157.52
2019-03-06T21:22:35.916Z,98152.10
2019-03-06T21:24:43.506Z,98150.89
2019-03-06T21:26:51.086Z,98146.72
2019-03-06T21:28:58.679Z,98147.20
2019-03-06T21:31:06.416Z,98141.81
2019-03-06T21:33:14.340Z,98146.14
2019-03-06T21:35:22.579Z,98140.30
2019-03-06T21:37:30.165Z,98142.42
2019-03-06T21:39:37.739Z,98137.82
2019-03-06T21:41:45.447Z,98138.25
2019-03-06T21:43:52.991Z,98139.14
2019-03-06T21:46:01.445Z,98136.68
2019-03-06T21:48:09.209Z,98139.27
2019-03-06T21:50:19.457Z,98137.21
2019-03-06T21:52:26.997Z,98135.21
2019-03-06T21:54:34.596Z,98134.05
2019-03-06T21:56:42.239Z,98127.42
2019-03-06T21:58:49.845Z,98141.87
2019-03-06T22:00:57.513Z,98141.97
2019-03-06T22:03:05.929Z,98139.11
2019-03-06T22:05:13.764Z,98130.31
2019-03-06T22:07:21.502Z,98127.47
2019-03-06T22:09:29.026Z,98124.94
2019-03-06T22:11:36.755Z,98127.11
2019-03-06T22:13:44.262Z,98126.20
2019-03-06T22:15:51.917Z,98121.58
2019-03-06T22:17:59.487Z,98122.00
2019-03-06T22:20:10.702Z,98114.39
2019-03-06T22:22:18.278Z,98119.88
2019-03-06T22:24:25.758Z,98116.19
2019-03-06T22:26:33.359Z,98113.13
2019-03-06T22:28:40.939Z,98108.07
2019-03-06T22:30:48.516Z,98116.47
2019-03-06T22:32:56.306Z,98113.94
2019-03-06T22:35:04.218Z,98108.50
2019-03-06T22:37:12.371Z,98105.92
2019-03-06T22:39:19.981Z,98102.13
2019-03-06T22:41:27.746Z,98097.95
2019-03-06T22:43:35.362Z,98097.49
2019-03-06T22:45:43.067Z,98088.94
2019-03-06T22:47:50.818Z,98086.41
2019-03-06T22:49:58.383Z,98088.41
2019-03-06T22:52:06.058Z,98076.23
2019-03-06T22:54:13.645Z,98086.25
2019-03-06T22:56:21.206Z,98078.66
2019-03-06T22:58:30.101Z,98076.86
2019-03-06T23:00:46.644Z,98076.81
2019-03-06T23:02:55.994Z,98069.20
2019-03-06T23:05:05.783Z,98068.79
2019-03-06T23:07:13.252Z,98070.05
2019-03-06T23:09:21.379Z,98066.31
2019-03-06T23:11:29.144Z,98064.52
2019-03-06T23:13:36.616Z,98058.67
2019-03-06T23:15:44.152Z,98051.91
2019-03-06T23:17:51.750Z,98049.38
2019-03-06T23:19:59.290Z,98046.91
2019-03-06T23:22:08.230Z,98043.48
2019-03-06T23:24:15.837Z,98046.91
2019-03-06T23:26:23.409Z,98037.59
2019-03-06T23:28:31.154Z,98039.85
2019-03-06T23:30:38.813Z,98037.75
2019-03-06T23:32:46.521Z,98033.28
2019-03-06T23:34:54.105Z,98026.58
2019-03-06T23:37:02.024Z,98031.64
2019-03-06T23:39:12.564Z,98015.62
2019-03-06T23:41:20.144Z,98019.12
2019-03-06T23:43:27.741Z,98027.14
2019-03-06T23:45:35.401Z,98010.32
2019-03-06T23:47:42.949Z,98020.44
2019-03-06T23:49:50.646Z,98010.27
2019-03-06T23:51:59.177Z,98000.14
2019-03-06T23:54:06.795Z,97994.61
2019-03-06T23:56:14.315Z,97992.50
2019-03-06T23:58:21.937Z,97995.09
